createdAt,value
2023-03-22T00:00:29.507Z,11.50
2023-03-22T00:02:32.653Z,11.50
2023-03-22T00:04:35.443Z,11.50
2023-03-22T00:06:38.057Z,11.50
2023-03-22T00:08:40.640Z,11.50
2023-03-22T00:10:43.112Z,11.50
2023-03-22T00:12:46.110Z,11.50
2023-03-22T00:14:48.911Z,11.40
2023-03-22T00:16:51.440Z,11.50
2023-03-22T00:18:54.028Z,11.40
2023-03-22T00:20:57.835Z,11.30
2023-03-22T00:23:00.789Z,11.30
2023-03-22T00:25:03.555Z,11.30
2023-03-22T00:27:06.148Z,11.20
2023-03-22T00:29:08.771Z,11.20
2023-03-22T00:31:11.687Z,11.20
2023-03-22T00:33:14.239Z,11.10
2023-03-22T00:35:16.931Z,11.30
2023-03-22T00:37:19.522Z,11.20
2023-03-22T00:39:22.491Z,11.20
2023-03-22T00:41:25.776Z,11.20
2023-03-22T00:43:28.456Z,11.30
2023-03-22T00:45:31.220Z,11.30
2023-03-22T00:47:33.821Z,11.30
2023-03-22T00:49:36.958Z,11.30
2023-03-22T00:51:39.785Z,11.40
2023-03-22T00:53:43.492Z,11.40
2023-03-22T00:55:46.829Z,11.40
2023-03-22T00:57:49.420Z,11.40
2023-03-22T00:59:53.365Z,11.40
2023-03-22T01:01:57.453Z,11.50
2023-03-22T01:04:00.069Z,11.40
2023-03-22T01:06:03.060Z,11.40
2023-03-22T01:08:08.140Z,11.40
2023-03-22T01:10:11.439Z,11.40
2023-03-22T01:12:14.324Z,11.40
2023-03-22T01:14:16.988Z,11.50
2023-03-22T01:16:19.668Z,11.50
2023-03-22T01:18:22.994Z,11.40
2023-03-22T01:20:26.108Z,11.40
2023-03-22T01:22:28.645Z,11.40
2023-03-22T01:24:31.284Z,11.40
2023-03-22T01:26:33.876Z,11.40
2023-03-22T01:28:36.467Z,11.20
2023-03-22T01:30:39.524Z,11.30
2023-03-22T01:32:42.392Z,11.30
2023-03-22T01:34:45.653Z,11.30
2023-03-22T01:36:50.009Z,11.20
2023-03-22T01:38:52.805Z,11.20
2023-03-22T01:40:56.719Z,11.20
2023-03-22T01:42:59.583Z,11.10
2023-03-22T01:45:20.066Z,11.00
2023-03-22T01:47:23.138Z,11.10
2023-03-22T01:49:27.526Z,11.10
2023-03-22T01:51:30.315Z,11.10
2023-03-22T01:53:36.649Z,11.10
2023-03-22T01:55:41.119Z,11.00
2023-03-22T01:57:45.603Z,10.90
2023-03-22T01:59:50.668Z,11.00
2023-03-22T02:01:55.128Z,11.00
2023-03-22T02:03:59.025Z,11.00
2023-03-22T02:06:02.143Z,11.00
2023-03-22T02:08:05.982Z,11.00
2023-03-22T02:10:12.156Z,11.00
2023-03-22T02:12:19.436Z,11.00
2023-03-22T02:14:35.052Z,11.00
2023-03-22T02:16:41.634Z,10.90
2023-03-22T02:19:20.576Z,11.00
2023-03-22T02:24:04.727Z,11.00
2023-03-22T02:26:38.770Z,10.90
2023-03-22T02:31:04.851Z,10.90
2023-03-22T02:33:12.250Z,10.90
2023-03-22T02:35:36.753Z,10.90
2023-03-22T02:37:46.609Z,10.90
2023-03-22T02:39:51.127Z,10.80
2023-03-22T02:42:01.100Z,10.80
2023-03-22T02:44:06.823Z,10.80
2023-03-22T02:46:11.300Z,10.80
2023-03-22T02:48:15.862Z,10.80
2023-03-22T02:50:20.395Z,10.70
2023-03-22T02:52:26.162Z,10.80
2023-03-22T02:54:30.844Z,10.80
2023-03-22T02:56:34.411Z,10.70
2023-03-22T02:58:38.730Z,10.70
2023-03-22T03:00:43.200Z,10.70
2023-03-22T03:02:48.141Z,10.80
2023-03-22T03:04:51.169Z,10.80
2023-03-22T03:06:55.531Z,10.80
2023-03-22T03:09:01.260Z,10.90
2023-03-22T03:11:04.151Z,10.80
2023-03-22T03:13:10.792Z,10.80
2023-03-22T03:15:15.666Z,10.80
2023-03-22T03:17:22.924Z,10.80
2023-03-22T03:19:27.379Z,10.80
2023-03-22T03:21:32.122Z,10.80
2023-03-22T03:23:42.552Z,10.80
2023-03-22T03:25:47.763Z,10.80
2023-03-22T03:27:54.387Z,10.80
2023-03-22T03:29:59.084Z,10.80
2023-03-22T03:32:04.441Z,10.90
2023-03-22T03:34:10.373Z,10.90
2023-03-22T03:36:14.763Z,10.90
2023-03-22T03:38:18.696Z,10.90
2023-03-22T03:40:23.214Z,10.90
2023-03-22T03:42:27.223Z,10.90
2023-03-22T03:44:30.667Z,10.90
2023-03-22T03:46:33.213Z,10.90
2023-03-22T03:48:37.111Z,10.90
2023-03-22T03:50:39.921Z,10.90
2023-03-22T03:52:44.669Z,10.90
2023-03-22T03:54:47.945Z,10.90
2023-03-22T03:56:53.183Z,10.90
2023-03-22T03:58:57.751Z,10.80
2023-03-22T04:01:03.849Z,10.80
2023-03-22T04:03:09.356Z,10.80
2023-03-22T04:05:14.200Z,10.70
2023-03-22T04:07:17.222Z,10.60
2023-03-22T04:09:20.040Z,10.60
2023-03-22T04:11:33.369Z,10.60
2023-03-22T04:13:38.144Z,10.60
2023-03-22T04:16:02.876Z,10.40
2023-03-22T04:18:09.264Z,10.40
2023-03-22T04:20:13.504Z,10.30
2023-03-22T04:22:17.893Z,10.40
2023-03-22T04:24:21.571Z,10.30
2023-03-22T04:26:26.790Z,10.30
2023-03-22T04:28:33.852Z,10.20
2023-03-22T04:30:38.164Z,10.10
2023-03-22T04:32:44.991Z,10.20
2023-03-22T04:34:48.257Z,10.20
2023-03-22T04:36:54.004Z,10.20
2023-03-22T04:38:58.425Z,10.10
2023-03-22T04:41:01.044Z,10.10
2023-03-22T04:43:05.461Z,10.10
2023-03-22T04:45:10.799Z,10.10
2023-03-22T04:47:14.197Z,10.10
2023-03-22T04:49:16.819Z,10.00
2023-03-22T04:51:19.404Z,10.00
2023-03-22T04:53:25.848Z,10.00
2023-03-22T04:55:29.626Z,9.90
2023-03-22T04:57:32.312Z,10.00
2023-03-22T04:59:35.015Z,10.00
2023-03-22T05:01:37.762Z,10.00
2023-03-22T05:03:44.652Z,10.00
2023-03-22T05:05:52.070Z,10.00
2023-03-22T05:07:55.762Z,10.00
2023-03-22T05:09:58.441Z,10.00
2023-03-22T05:12:01.292Z,10.00
2023-03-22T05:14:05.777Z,10.00
2023-03-22T05:16:10.187Z,10.00
2023-03-22T05:18:14.818Z,10.10
2023-03-22T05:20:17.341Z,10.10
2023-03-22T05:22:21.898Z,10.10
2023-03-22T05:24:26.011Z,10.10
2023-03-22T05:26:28.617Z,10.10
2023-03-22T05:28:31.566Z,10.10
2023-03-22T05:30:35.957Z,10.10
2023-03-22T05:32:42.176Z,10.10
2023-03-22T05:34:44.973Z,10.10
2023-03-22T05:36:51.130Z,10.20
2023-03-22T05:38:55.717Z,10.30
2023-03-22T05:40:58.920Z,10.40
2023-03-22T05:43:01.624Z,10.40
2023-03-22T05:45:05.214Z,10.50
2023-03-22T05:47:09.069Z,10.70
2023-03-22T05:49:13.429Z,10.60
2023-03-22T05:51:17.427Z,10.60
2023-03-22T05:53:20.405Z,10.60
2023-03-22T05:55:24.784Z,10.70
2023-03-22T05:57:29.500Z,10.70
2023-03-22T05:59:32.271Z,10.80
2023-03-22T06:01:34.928Z,10.90
2023-03-22T06:03:39.717Z,10.90
2023-03-22T06:05:44.093Z,11.10
2023-03-22T06:07:46.809Z,11.10
2023-03-22T06:09:51.192Z,11.20
2023-03-22T06:11:55.594Z,11.30
2023-03-22T06:13:58.496Z,11.40
2023-03-22T06:16:03.775Z,11.50
2023-03-22T06:18:06.735Z,11.50
2023-03-22T06:20:12.912Z,11.40
2023-03-22T06:22:17.241Z,11.30
2023-03-22T06:24:20.136Z,11.30
2023-03-22T06:26:22.716Z,11.20
2023-03-22T06:28:27.793Z,11.20
2023-03-22T06:30:30.882Z,11.20
2023-03-22T06:32:35.342Z,11.20
2023-03-22T06:34:38.392Z,11.20
2023-03-22T06:36:41.875Z,11.20
2023-03-22T06:38:46.257Z,11.20
2023-03-22T06:40:48.872Z,11.20
2023-03-22T06:42:51.560Z,11.10
2023-03-22T06:44:54.760Z,11.20
2023-03-22T06:46:59.207Z,11.30
2023-03-22T06:49:03.730Z,11.30
2023-03-22T06:51:07.380Z,11.30
2023-03-22T06:53:11.381Z,11.30
2023-03-22T06:55:14.964Z,11.40
2023-03-22T06:57:17.593Z,11.40
2023-03-22T06:59:21.482Z,11.50
2023-03-22T07:01:24.803Z,11.50
2023-03-22T07:03:27.402Z,11.60
2023-03-22T07:05:31.886Z,11.60
2023-03-22T07:07:34.411Z,11.60
2023-03-22T07:09:38.611Z,11.60
2023-03-22T07:11:41.860Z,11.60
2023-03-22T07:13:45.078Z,11.60
2023-03-22T07:15:49.516Z,11.70
2023-03-22T07:17:53.959Z,11.70
2023-03-22T07:19:56.917Z,11.70
2023-03-22T07:22:00.176Z,11.70
2023-03-22T07:24:03.386Z,11.70
2023-03-22T07:26:06.509Z,11.60
2023-03-22T07:28:10.835Z,11.80
2023-03-22T07:30:14.123Z,11.80
2023-03-22T07:32:18.545Z,11.90
2023-03-22T07:34:23.193Z,11.90
2023-03-22T07:36:27.615Z,11.90
2023-03-22T07:38:30.607Z,11.90
2023-03-22T07:40:33.301Z,12.00
2023-03-22T07:42:36.050Z,12.00
2023-03-22T07:44:40.399Z,12.10
2023-03-22T07:46:44.886Z,12.10
2023-03-22T07:48:49.421Z,12.00
2023-03-22T07:50:56.177Z,12.10
2023-03-22T07:52:59.851Z,12.10
2023-03-22T07:55:02.757Z,12.10
2023-03-22T07:57:06.403Z,12.10
2023-03-22T07:59:14.102Z,12.10
2023-03-22T08:01:17.791Z,12.10
2023-03-22T08:03:22.662Z,12.20
2023-03-22T08:05:27.319Z,12.20
2023-03-22T08:07:31.807Z,12.40
2023-03-22T08:09:34.914Z,12.50
2023-03-22T08:11:37.519Z,12.60
2023-03-22T08:13:41.539Z,12.80
2023-03-22T08:15:44.978Z,13.00
2023-03-22T08:17:49.259Z,13.10
2023-03-22T08:20:05.377Z,13.40
2023-03-22T08:22:11.711Z,12.00
2023-03-22T08:24:16.164Z,13.20
2023-03-22T08:26:21.699Z,13.20
2023-03-22T08:28:24.582Z,13.20
2023-03-22T08:30:27.493Z,13.20
2023-03-22T08:32:30.326Z,13.20
2023-03-22T08:34:35.294Z,13.30
2023-03-22T08:36:38.420Z,13.50
2023-03-22T08:38:41.924Z,13.50
2023-03-22T08:40:46.831Z,13.50
2023-03-22T08:42:50.648Z,13.50
2023-03-22T08:44:53.420Z,13.30
2023-03-22T08:47:02.250Z,13.30
2023-03-22T08:49:44.866Z,13.30
2023-03-22T08:52:17.845Z,13.30
2023-03-22T08:56:58.849Z,13.40
2023-03-22T08:59:03.658Z,13.40
2023-03-22T09:01:15.496Z,13.40
2023-03-22T09:03:20.395Z,13.40
2023-03-22T09:05:25.719Z,13.40
2023-03-22T09:07:29.197Z,13.40
2023-03-22T09:09:33.779Z,13.70
2023-03-22T09:11:37.753Z,13.50
2023-03-22T09:13:40.625Z,13.60
2023-03-22T09:15:46.997Z,13.70
2023-03-22T09:17:51.634Z,13.80
2023-03-22T09:20:09.470Z,13.80
2023-03-22T09:21:59.160Z,13.90
2023-03-22T09:24:03.981Z,13.80
2023-03-22T09:26:09.017Z,13.80
2023-03-22T09:28:13.350Z,13.80
2023-03-22T09:30:16.276Z,14.00
2023-03-22T09:32:19.425Z,14.10
2023-03-22T09:34:24.001Z,14.20
2023-03-22T09:36:27.060Z,14.20
2023-03-22T09:38:31.489Z,14.40
2023-03-22T09:40:35.029Z,14.60
2023-03-22T09:42:39.075Z,14.40
2023-03-22T09:44:44.728Z,14.20
2023-03-22T09:46:50.481Z,14.10
2023-03-22T09:48:53.369Z,14.10
2023-03-22T09:50:56.006Z,14.20
2023-03-22T09:52:59.345Z,14.20
2023-03-22T09:55:02.660Z,14.30
2023-03-22T09:57:07.337Z,14.40
2023-03-22T09:59:13.070Z,14.30
2023-03-22T10:01:20.856Z,14.30
2023-03-22T10:03:24.436Z,14.20
2023-03-22T10:05:29.744Z,14.30
2023-03-22T10:07:34.136Z,14.40
2023-03-22T10:09:39.479Z,14.40
2023-03-22T10:11:45.998Z,14.50
2023-03-22T10:13:51.237Z,14.60
2023-03-22T10:15:54.665Z,14.60
2023-03-22T10:17:58.764Z,14.60
2023-03-22T10:20:05.470Z,14.50
2023-03-22T10:22:09.988Z,14.50
2023-03-22T10:24:15.079Z,14.40
2023-03-22T10:26:18.890Z,14.40
2023-03-22T10:28:22.789Z,14.30
2023-03-22T10:30:26.226Z,14.50
2023-03-22T10:32:31.729Z,15.00
2023-03-22T10:34:35.221Z,15.40
2023-03-22T10:36:38.705Z,15.70
2023-03-22T10:38:43.340Z,16.10
2023-03-22T10:40:46.408Z,16.40
2023-03-22T10:42:52.573Z,16.50
2023-03-22T10:44:56.933Z,16.40
2023-03-22T10:47:01.200Z,16.20
2023-03-22T10:49:04.498Z,16.00
2023-03-22T10:51:11.256Z,15.70
2023-03-22T10:53:18.433Z,15.70
2023-03-22T10:55:26.344Z,15.60
2023-03-22T10:57:31.929Z,15.60
2023-03-22T10:59:51.564Z,15.50
2023-03-22T11:01:57.868Z,15.40
2023-03-22T11:04:05.523Z,15.40
2023-03-22T11:06:13.309Z,15.70
2023-03-22T11:08:18.896Z,15.70
2023-03-22T11:10:27.970Z,15.60
2023-03-22T11:12:31.209Z,15.60
2023-03-22T11:14:34.794Z,15.60
2023-03-22T11:16:42.809Z,15.40
2023-03-22T11:18:45.742Z,15.50
2023-03-22T11:20:56.636Z,15.50
2023-03-22T11:23:02.492Z,15.50
2023-03-22T11:25:07.439Z,15.40
2023-03-22T11:27:14.302Z,15.60
2023-03-22T11:29:18.280Z,15.40
2023-03-22T11:31:21.124Z,15.40
2023-03-22T11:33:25.468Z,15.30
2023-03-22T11:35:29.376Z,15.30
2023-03-22T11:37:31.992Z,15.40
2023-03-22T11:39:34.772Z,15.60
2023-03-22T11:41:39.330Z,15.60
2023-03-22T11:43:43.703Z,15.60
2023-03-22T11:45:48.050Z,15.70
2023-03-22T11:47:51.400Z,15.70
2023-03-22T11:49:55.813Z,15.90
2023-03-22T11:52:00.142Z,15.90
2023-03-22T11:54:05.222Z,15.90
2023-03-22T11:56:09.231Z,15.80
2023-03-22T11:58:18.452Z,15.70
2023-03-22T12:00:22.917Z,15.70
2023-03-22T12:02:27.249Z,15.60
2023-03-22T12:04:32.050Z,15.60
2023-03-22T12:06:36.525Z,15.60
2023-03-22T12:08:42.175Z,15.40
2023-03-22T12:10:46.697Z,15.40
2023-03-22T12:12:51.463Z,15.30
2023-03-22T12:14:56.615Z,15.40
2023-03-22T12:17:01.081Z,15.40
2023-03-22T12:19:05.916Z,15.90
2023-03-22T12:21:09.147Z,15.30
2023-03-22T12:23:14.322Z,15.40
2023-03-22T12:25:18.637Z,15.30
2023-03-22T12:27:23.316Z,15.20
2023-03-22T12:29:26.408Z,15.10
2023-03-22T12:31:30.868Z,15.00
2023-03-22T12:33:35.363Z,14.90
2023-03-22T12:35:39.898Z,14.80
2023-03-22T12:37:43.428Z,14.90
2023-03-22T12:39:48.252Z,14.80
2023-03-22T12:41:52.539Z,14.80
2023-03-22T12:43:56.746Z,14.80
2023-03-22T12:46:00.271Z,14.80
2023-03-22T12:48:06.228Z,14.70
2023-03-22T12:50:12.741Z,14.70
2023-03-22T12:52:16.284Z,14.60
2023-03-22T12:54:20.076Z,14.70
2023-03-22T12:56:24.482Z,14.50
2023-03-22T12:58:27.616Z,14.50
2023-03-22T13:00:32.045Z,14.50
2023-03-22T13:02:35.151Z,14.40
2023-03-22T13:04:51.015Z,14.30
2023-03-22T13:06:58.161Z,14.30
2023-03-22T13:09:16.421Z,14.40
2023-03-22T13:11:22.845Z,14.50
2023-03-22T13:13:42.194Z,14.70
2023-03-22T13:16:04.680Z,14.70
2023-03-22T13:18:11.732Z,14.70
2023-03-22T13:20:27.984Z,14.70
2023-03-22T13:22:32.308Z,14.60
2023-03-22T13:24:36.046Z,14.50
2023-03-22T13:26:40.660Z,14.30
2023-03-22T13:28:45.051Z,14.30
2023-03-22T13:30:51.155Z,14.20
2023-03-22T13:32:56.540Z,14.10
2023-03-22T13:35:00.227Z,14.10
2023-03-22T13:37:04.612Z,14.00
2023-03-22T13:39:11.680Z,14.00
2023-03-22T13:41:19.271Z,14.00
2023-03-22T13:43:25.005Z,14.00
2023-03-22T13:45:31.615Z,14.00
2023-03-22T13:47:35.345Z,14.00
2023-03-22T13:49:46.245Z,14.00
2023-03-22T13:51:49.103Z,14.00
2023-03-22T13:53:55.266Z,14.10
2023-03-22T13:55:59.392Z,14.10
2023-03-22T13:58:04.188Z,14.10
2023-03-22T14:00:15.129Z,14.10
2023-03-22T14:02:18.363Z,14.00
2023-03-22T14:04:23.339Z,14.00
2023-03-22T14:06:28.299Z,14.10
2023-03-22T14:08:32.395Z,14.10
2023-03-22T14:10:39.152Z,14.10
2023-03-22T14:12:47.652Z,14.10
2023-03-22T14:14:53.108Z,14.10
2023-03-22T14:16:57.497Z,13.80
2023-03-22T14:19:00.140Z,14.20
2023-03-22T14:21:04.392Z,14.20
